Nearby METAR Reports

 

KCMA - Camarillo, California, USA
Distance from station: WSW 4mi, 7km
Updated: Wed, 13-Nov-2019 11:55am PST
Clear
Clear
 Wind from W
Wind: W 10 mph , 17 km/h
Temperature: 68°F , 20°C
Dew Point: 54°F , 12°C
Humidity: 60%
Barometer: 30.00 inHg , 1015.9 hPa
Clouds: Clear
Visibility: 9 miles , 14 km
2019/11/13 19:55 KCMA 131955Z 26009KT 9SM CLR 20/12 A3000 RMK AO2 SLP168 T02000122
KNTD - Point Mugu Nas, California, USA
Distance from station: SSW 9mi, 15km
Updated: Wed, 13-Nov-2019 11:57am PST
Mostly cloudy
Mostly cloudy
 Wind from W
Wind: W 10 mph , 17 km/h
Temperature: 64°F , 18°C
Dew Point: 55°F , 13°C
Humidity: 73%
Barometer: 30.02 inHg , 1016.6 hPa
Clouds: Mostly cloudy
Visibility: 10 miles , 16 km
Cloud details: Few Clouds 1000 ft
Mostly cloudy 25000 ft
2019/11/13 19:57 KNTD 131957Z 27009KT 10SM FEW010 BKN250 18/13 A3002 RMK AO2 SLP165 T01830128 VISNO N $
 
KOXR - Oxnard, California, USA
Distance from station: WSW 10mi, 16km
Updated: Wed, 13-Nov-2019 11:51am PST
Partly cloudy
Partly cloudy
 Wind from W
Wind: W 9 mph , 15 km/h
Temperature: 63°F , 17°C
Dew Point: 54°F , 12°C
Humidity: 73%
Barometer: 30.01 inHg , 1016.3 hPa
Clouds: Partly cloudy
Visibility: 10 miles , 16 km
Cloud details: Partly cloudy 1000 ft
2019/11/13 19:51 KOXR 131951Z 26008KT 10SM SCT010 17/12 A3001 RMK AO2 SLP161 T01720122
KVNY - Van Nuys, California, USA
Distance from station: E 31mi, 50km
Updated: Wed, 13-Nov-2019 11:51am PST
Clear
Clear
 Wind from calm
Wind: Calm
Temperature: 79°F , 26°C
Dew Point: 43°F , 6°C
Humidity: 28%
Barometer: 29.98 inHg , 1015.2 hPa
Clouds: Clear
Visibility: 8 miles , 13 km
2019/11/13 19:51 KVNY 131951Z 00000KT 8SM CLR 26/06 A2998 RMK AO2 SLP145 T02560061
 
KWHP - La / Whiteman, California, USA
Distance from station: E 35mi, 56km
Updated: Wed, 13-Nov-2019 11:50am PST
Clear
Clear
 Wind from calm
Wind: Calm
Temperature: 75°F , 24°C
Dew Point: 37°F , 3°C
Humidity: 25%
Barometer: 30.02 inHg , 1016.6 hPa
Clouds: Clear
Visibility: 10 miles , 16 km
2019/11/13 19:50 KWHP 131950Z 00000KT 10SM SKC 24/03 A3002
KSMO - Santa Monica, California, USA
Distance from station: ESE 36mi, 58km
Updated: Wed, 13-Nov-2019 11:51am PST
Haze, Clear
Haze, Clear
 Wind from SW
Wind: SW 6 mph , 9 km/h
Temperature: 64°F , 18°C
Dew Point: 55°F , 13°C
Humidity: 73%
Barometer: 30.00 inHg , 1015.9 hPa
Summary: Haze
Clouds: Clear
Visibility: 5 miles , 8 km
2019/11/13 19:51 KSMO 131951Z 22005KT 5SM HZ CLR 18/13 A3000 RMK AO2 SLP158 T01780128
 
KBUR - Burbank, California, USA
Distance from station: E 38mi, 61km
Updated: Wed, 13-Nov-2019 11:53am PST
Clear
Clear
 Wind from S
Wind: S 5 mph , 7 km/h
Temperature: 73°F , 23°C
Dew Point: 46°F , 8°C
Humidity: 38%
Barometer: 29.98 inHg , 1015.2 hPa
Clouds: Clear
Visibility: 9 miles , 14 km
2019/11/13 19:53 KBUR 131953Z 17004KT 9SM CLR 23/08 A2998 RMK AO2 SLP143 T02280078 $
KSDB - Sandberg, California, USA
Distance from station: NNE 40mi, 64km
Updated: Wed, 13-Nov-2019 11:53am PST
Clear
Clear
 Wind from SSE
Wind: SSE 6 mph , 9 km/h
Temperature: 73°F , 23°C
Dew Point: 21°F , -6°C
Humidity: 14%
Barometer: 30.14 inHg , 1020.7 hPa
Clouds: Clear
Visibility: 10 miles , 16 km
2019/11/13 19:53 KSDB 131953Z AUTO 15005KT 10SM CLR 23/M06 A3014 RMK AO2 SLP154 T02331056
 
KLAX - Los Angeles, California, USA
Distance from station: ESE 42mi, 68km
Updated: Wed, 13-Nov-2019 11:53am PST
Haze, Mostly cloudy
Haze, Mostly cloudy
 Wind from W
Wind: W 8 mph , 13 km/h
Temperature: 66°F , 19°C
Dew Point: 55°F , 13°C
Humidity: 68%
Barometer: 30.00 inHg , 1015.9 hPa
Summary: Haze
Clouds: Mostly cloudy
Visibility: 4 miles , 6 km
Cloud details: Few Clouds 1900 ft
Partly cloudy 14000 ft
Mostly cloudy 16000 ft
2019/11/13 19:53 KLAX 131953Z 26007KT 4SM HZ FEW019 SCT140 BKN160 19/13 A3000 RMK AO2 SLP159 T01890133
KCQT - Los Angeles, California, USA
Distance from station: ESE 45mi, 73km
Updated: Wed, 13-Nov-2019 11:52am PST
Haze, Clear
Haze, Clear
 Wind from calm
Wind: Calm
Temperature: 72°F , 22°C
Dew Point: 55°F , 13°C
Humidity: 57%
Barometer: 29.98 inHg , 1015.2 hPa
Summary: Haze
Clouds: Clear
Visibility: 3 miles , 5 km
2019/11/13 19:52 KCQT 131952Z AUTO 00000KT 3SM HZ CLR 22/13 A2998 RMK AO2 SLP151 T02220128
 
KHHR - Hawthorne, California, USA
Distance from station: ESE 45mi, 73km
Updated: Wed, 13-Nov-2019 11:53am PST
Haze, Clear
Haze, Clear
 Wind from W
Wind: W 7 mph , 11 km/h
Temperature: 66°F , 19°C
Dew Point: 55°F , 13°C
Humidity: 68%
Barometer: 30.00 inHg , 1015.9 hPa
Summary: Haze
Clouds: Clear
Visibility: 4 miles , 6 km
2019/11/13 19:53 KHHR 131953Z 28006KT 4SM HZ CLR 19/13 A3000 RMK AO2 SLP158 T01940133
KSBA - Santa Barbara, California, USA
Distance from station: WNW 49mi, 79km
Updated: Wed, 13-Nov-2019 11:53am PST
Clear
Clear
 Wind from SSE
Wind: SSE 6 mph , 9 km/h
Temperature: 64°F , 18°C
Dew Point: 54°F , 12°C
Humidity: 68%
Barometer: 30.00 inHg , 1015.9 hPa
Clouds: Clear
Visibility: 8 miles , 13 km
2019/11/13 19:53 KSBA 131953Z 15005KT 8SM CLR 18/12 A3000 RMK AO2 SLP158 T01780122